createdAt,value
2017-03-26T00:00:58.836Z,0
2017-03-26T00:01:59.208Z,0
2017-03-26T00:02:58.610Z,0
2017-03-26T00:03:59.562Z,0
2017-03-26T00:04:59.621Z,0
2017-03-26T00:05:59.018Z,0
2017-03-26T00:06:59.044Z,0
2017-03-26T00:07:58.787Z,0
2017-03-26T00:08:58.850Z,0
2017-03-26T00:09:59.158Z,0
2017-03-26T00:10:59.185Z,0
2017-03-26T00:11:59.520Z,0
2017-03-26T00:12:59.862Z,0
2017-03-26T00:13:59.592Z,0
2017-03-26T00:14:59.636Z,0
2017-03-26T00:15:59.054Z,0
2017-03-26T00:16:59.389Z,0
2017-03-26T00:18:00.023Z,0
2017-03-26T00:19:00.071Z,0
2017-03-26T00:19:59.807Z,0
2017-03-26T00:20:59.539Z,0
2017-03-26T00:21:59.557Z,0
2017-03-26T00:23:00.205Z,0
2017-03-26T00:24:00.248Z,0
2017-03-26T00:25:00.271Z,0
2017-03-26T00:25:59.424Z,0
2017-03-26T00:26:59.740Z,0
2017-03-26T00:28:00.068Z,0
2017-03-26T00:29:00.101Z,0
2017-03-26T00:30:00.155Z,0
2017-03-26T00:30:59.888Z,0
2017-03-26T00:32:00.209Z,0
2017-03-26T00:32:59.940Z,0
2017-03-26T00:34:00.281Z,0
2017-03-26T00:35:00.307Z,0
2017-03-26T00:35:59.735Z,0
2017-03-26T00:37:00.063Z,0
2017-03-26T00:38:00.426Z,0
2017-03-26T00:39:00.461Z,0
2017-03-26T00:40:00.168Z,0
2017-03-26T00:41:00.511Z,0
2017-03-26T00:42:00.547Z,0
2017-03-26T00:43:00.583Z,0
2017-03-26T00:44:00.320Z,0
2017-03-26T00:45:00.354Z,0
2017-03-26T00:46:00.675Z,0
2017-03-26T00:47:00.102Z,0
2017-03-26T00:48:00.455Z,0
2017-03-26T00:49:00.794Z,0
2017-03-26T00:50:00.805Z,0
2017-03-26T00:51:00.765Z,0
2017-03-26T00:52:00.873Z,0
2017-03-26T00:53:00.608Z,0
2017-03-26T00:54:00.358Z,0
2017-03-26T00:55:00.980Z,0
2017-03-26T00:56:00.733Z,0
2017-03-26T00:57:01.057Z,0
2017-03-26T00:58:01.086Z,0
2017-03-26T00:59:00.820Z,0
2017-03-26T01:00:01.473Z,0
2017-03-26T01:01:00.884Z,0
2017-03-26T01:02:00.926Z,0
2017-03-26T01:03:01.260Z,0
2017-03-26T01:04:00.980Z,0
2017-03-26T01:05:01.633Z,0
2017-03-26T01:06:01.045Z,0
2017-03-26T01:07:00.773Z,0
2017-03-26T01:08:01.114Z,0
2017-03-26T01:09:01.156Z,0
2017-03-26T01:10:01.194Z,0
2017-03-26T01:11:00.919Z,0
2017-03-26T01:12:01.255Z,0
2017-03-26T01:13:01.604Z,0
2017-03-26T01:14:01.930Z,0
2017-03-26T01:15:01.662Z,0
2017-03-26T01:16:01.393Z,0
2017-03-26T01:17:01.430Z,0
2017-03-26T01:18:01.753Z,0
2017-03-26T01:19:01.480Z,0
2017-03-26T01:20:01.825Z,0
2017-03-26T01:21:01.568Z,0
2017-03-26T01:22:01.596Z,0
2017-03-26T01:23:01.611Z,0
2017-03-26T01:24:01.963Z,0
2017-03-26T01:25:02.310Z,0
2017-03-26T01:26:01.715Z,0
2017-03-26T01:27:01.741Z,0
2017-03-26T01:28:02.092Z,0
2017-03-26T01:29:02.122Z,0
2017-03-26T01:30:02.157Z,0
2017-03-26T01:31:02.181Z,0
2017-03-26T01:32:01.921Z,0
2017-03-26T01:33:02.274Z,0
2017-03-26T01:34:02.287Z,0
2017-03-26T01:35:01.724Z,0
2017-03-26T01:36:02.047Z,0
2017-03-26T01:37:02.398Z,0
2017-03-26T01:38:02.437Z,0
2017-03-26T01:39:02.148Z,0
2017-03-26T01:40:02.792Z,0
2017-03-26T01:41:01.909Z,0
2017-03-26T01:42:01.950Z,0
2017-03-26T01:43:01.990Z,0
2017-03-26T01:44:02.931Z,0
2017-03-26T01:45:02.436Z,0
2017-03-26T01:46:02.380Z,0
2017-03-26T01:47:02.420Z,0
2017-03-26T01:48:02.449Z,0
2017-03-26T01:49:02.504Z,0
2017-03-26T01:50:02.820Z,0
2017-03-26T01:51:02.252Z,0
2017-03-26T01:52:02.586Z,0
2017-03-26T01:53:02.929Z,0
2017-03-26T01:54:03.266Z,0
2017-03-26T01:55:02.684Z,0
2017-03-26T01:56:02.720Z,0
2017-03-26T01:57:02.688Z,0
2017-03-26T01:58:03.083Z,0
2017-03-26T01:59:02.826Z,0
2017-03-26T02:00:03.153Z,0
2017-03-26T02:01:02.891Z,0
2017-03-26T02:02:02.620Z,0
2017-03-26T02:03:02.663Z,0
2017-03-26T02:04:02.981Z,0
2017-03-26T02:05:03.626Z,0
2017-03-26T02:06:03.051Z,0
2017-03-26T02:07:03.083Z,0
2017-03-26T02:08:03.420Z,0
2017-03-26T02:09:02.857Z,0
2017-03-26T02:10:02.933Z,0
2017-03-26T02:11:03.207Z,0
2017-03-26T02:12:03.263Z,0
2017-03-26T02:13:03.327Z,0
2017-03-26T02:14:03.009Z,0
2017-03-26T02:15:03.671Z,0
2017-03-26T02:16:03.697Z,0
2017-03-26T02:17:03.737Z,0
2017-03-26T02:18:04.078Z,0
2017-03-26T02:19:03.795Z,0
2017-03-26T02:20:03.548Z,0
2017-03-26T02:21:03.576Z,0
2017-03-26T02:22:03.287Z,0
2017-03-26T02:23:03.930Z,0
2017-03-26T02:24:03.954Z,0
2017-03-26T02:25:04.341Z,0
2017-03-26T02:26:03.766Z,0
2017-03-26T02:27:03.761Z,0
2017-03-26T02:28:04.102Z,0
2017-03-26T02:29:04.145Z,0
2017-03-26T02:30:03.901Z,0
2017-03-26T02:31:03.875Z,0
2017-03-26T02:32:03.605Z,0
2017-03-26T02:33:03.636Z,0
2017-03-26T02:34:04.294Z,0
2017-03-26T02:35:04.622Z,0
2017-03-26T02:36:03.736Z,0
2017-03-26T02:37:04.383Z,0
2017-03-26T02:38:04.415Z,0
2017-03-26T02:39:04.160Z,0
2017-03-26T02:40:04.797Z,0
2017-03-26T02:41:04.208Z,0
2017-03-26T02:42:03.970Z,0
2017-03-26T02:43:04.584Z,0
2017-03-26T02:44:04.342Z,0
2017-03-26T02:45:04.047Z,0
2017-03-26T02:46:04.373Z,0
2017-03-26T02:47:04.410Z,0
2017-03-26T02:48:04.445Z,0
2017-03-26T02:49:04.475Z,0
2017-03-26T02:50:04.523Z,0
2017-03-26T02:51:04.537Z,0
2017-03-26T02:52:04.880Z,0
2017-03-26T02:53:04.606Z,0
2017-03-26T02:54:04.952Z,0
2017-03-26T02:55:04.661Z,0
2017-03-26T02:56:04.703Z,0
2017-03-26T02:57:04.741Z,0
2017-03-26T02:58:05.372Z,0
2017-03-26T02:59:04.799Z,0
2017-03-26T03:00:04.844Z,0
2017-03-26T03:01:05.180Z,0
2017-03-26T03:02:04.897Z,0
2017-03-26T03:03:04.934Z,0
2017-03-26T03:04:04.960Z,0
2017-03-26T03:05:05.617Z,0
2017-03-26T03:06:05.047Z,0
2017-03-26T03:07:04.759Z,0
2017-03-26T03:08:05.095Z,0
2017-03-26T03:09:05.438Z,0
2017-03-26T03:10:05.777Z,0
2017-03-26T03:11:05.186Z,0
2017-03-26T03:12:05.533Z,0
2017-03-26T03:13:04.951Z,0
2017-03-26T03:14:05.588Z,0
2017-03-26T03:15:05.021Z,0
2017-03-26T03:16:05.348Z,0
2017-03-26T03:17:05.451Z,0
2017-03-26T03:18:05.427Z,0
2017-03-26T03:19:06.083Z,0
2017-03-26T03:20:05.797Z,0
2017-03-26T03:21:05.530Z,0
2017-03-26T03:22:05.576Z,0
2017-03-26T03:23:05.888Z,0
2017-03-26T03:24:06.229Z,0
2017-03-26T03:25:05.654Z,0
2017-03-26T03:26:06.002Z,0
2017-03-26T03:27:05.427Z,0
2017-03-26T03:28:05.760Z,0
2017-03-26T03:29:06.100Z,0
2017-03-26T03:30:05.507Z,0
2017-03-26T03:31:05.549Z,0
2017-03-26T03:32:05.891Z,0
2017-03-26T03:33:06.533Z,0
2017-03-26T03:34:05.950Z,0
2017-03-26T03:35:06.283Z,0
2017-03-26T03:36:05.705Z,0
2017-03-26T03:37:05.754Z,0
2017-03-26T03:38:05.767Z,0
2017-03-26T03:39:06.128Z,0
2017-03-26T03:40:06.440Z,0
2017-03-26T03:41:06.482Z,0
2017-03-26T03:42:05.898Z,0
2017-03-26T03:43:06.544Z,0
2017-03-26T03:44:06.593Z,0
2017-03-26T03:45:06.318Z,0
2017-03-26T03:46:06.636Z,0
2017-03-26T03:47:06.363Z,0
2017-03-26T03:48:06.403Z,0
2017-03-26T03:49:06.745Z,0
2017-03-26T03:50:06.162Z,0
2017-03-26T03:51:06.197Z,0
2017-03-26T03:52:06.584Z,0
2017-03-26T03:53:06.856Z,0
2017-03-26T03:54:06.610Z,0
2017-03-26T03:55:06.683Z,0
2017-03-26T03:56:06.968Z,0
2017-03-26T03:57:06.687Z,0
2017-03-26T03:58:07.341Z,0
2017-03-26T03:59:06.455Z,0
2017-03-26T04:00:06.807Z,0
2017-03-26T04:01:06.508Z,0
2017-03-26T04:02:06.561Z,0
2017-03-26T04:03:06.888Z,0
2017-03-26T04:04:06.937Z,0
2017-03-26T04:05:06.663Z,0
2017-03-26T04:06:07.033Z,0
2017-03-26T04:07:06.719Z,0
2017-03-26T04:08:06.762Z,0
2017-03-26T04:09:07.069Z,0
2017-03-26T04:10:07.103Z,0
2017-03-26T04:11:07.146Z,0
2017-03-26T04:12:06.871Z,0
2017-03-26T04:13:07.210Z,0
2017-03-26T04:14:07.538Z,0
2017-03-26T04:15:06.973Z,0
2017-03-26T04:16:07.003Z,0
2017-03-26T04:17:07.330Z,0
2017-03-26T04:18:07.291Z,0
2017-03-26T04:19:07.704Z,0
2017-03-26T04:20:07.426Z,0
2017-03-26T04:21:07.174Z,0
2017-03-26T04:22:07.500Z,0
2017-03-26T04:23:07.832Z,0
2017-03-26T04:24:07.863Z,0
2017-03-26T04:25:07.893Z,0
2017-03-26T04:26:07.620Z,0
2017-03-26T04:27:07.675Z,0
2017-03-26T04:28:08.005Z,0
2017-03-26T04:29:07.739Z,0
2017-03-26T04:30:08.663Z,0
2017-03-26T04:31:07.805Z,0
2017-03-26T04:32:08.142Z,0
2017-03-26T04:33:08.154Z,0
2017-03-26T04:34:08.191Z,0
2017-03-26T04:35:07.610Z,0
2017-03-26T04:36:08.247Z,0
2017-03-26T04:37:08.287Z,0
2017-03-26T04:38:08.628Z,0
2017-03-26T04:39:08.352Z,0
2017-03-26T04:40:08.086Z,0
2017-03-26T04:41:08.105Z,0
2017-03-26T04:42:08.140Z,0
2017-03-26T04:43:07.870Z,0
2017-03-26T04:44:08.528Z,5
2017-03-26T04:45:08.855Z,5
2017-03-26T04:46:07.967Z,5
2017-03-26T04:47:08.305Z,5
2017-03-26T04:48:08.332Z,5
2017-03-26T04:49:08.391Z,5
2017-03-26T04:50:08.404Z,5
2017-03-26T04:51:08.744Z,5
2017-03-26T04:52:08.160Z,5
2017-03-26T04:53:08.501Z,5
2017-03-26T04:54:09.147Z,5
2017-03-26T04:55:08.314Z,5
2017-03-26T04:56:08.587Z,10
2017-03-26T04:57:08.940Z,10
2017-03-26T04:58:08.380Z,10
2017-03-26T04:59:08.703Z,10
2017-03-26T05:00:08.725Z,10
2017-03-26T05:01:08.765Z,15
2017-03-26T05:02:09.149Z,15
2017-03-26T05:03:08.518Z,20
2017-03-26T05:04:08.849Z,20
2017-03-26T05:05:08.602Z,25
2017-03-26T05:06:08.922Z,25
2017-03-26T05:07:09.265Z,30
2017-03-26T05:08:08.977Z,30
2017-03-26T05:09:09.617Z,35
2017-03-26T05:10:08.748Z,35
2017-03-26T05:11:08.780Z,35
2017-03-26T05:12:09.105Z,35
2017-03-26T05:13:08.855Z,40
2017-03-26T05:14:09.472Z,40
2017-03-26T05:15:08.905Z,45
2017-03-26T05:16:08.943Z,45
2017-03-26T05:17:09.278Z,50
2017-03-26T05:18:09.319Z,50
2017-03-26T05:19:09.053Z,55
2017-03-26T05:20:09.068Z,60
2017-03-26T05:21:09.095Z,60
2017-03-26T05:22:09.138Z,60
2017-03-26T05:23:09.242Z,65
2017-03-26T05:24:09.551Z,70
2017-03-26T05:25:09.232Z,70
2017-03-26T05:26:09.569Z,70
2017-03-26T05:27:09.289Z,70
2017-03-26T05:28:09.327Z,70
2017-03-26T05:29:09.660Z,70
2017-03-26T05:30:09.389Z,75
2017-03-26T05:31:09.721Z,75
2017-03-26T05:32:09.762Z,80
2017-03-26T05:33:09.797Z,80
2017-03-26T05:34:09.827Z,85
2017-03-26T05:35:10.172Z,85
2017-03-26T05:36:10.214Z,85
2017-03-26T05:37:10.225Z,90
2017-03-26T05:38:10.268Z,90
2017-03-26T05:39:10.597Z,85
2017-03-26T05:40:10.022Z,90
2017-03-26T05:41:10.060Z,90
2017-03-26T05:42:10.401Z,95
2017-03-26T05:43:10.732Z,95
2017-03-26T05:44:10.190Z,100
2017-03-26T05:45:10.185Z,105
2017-03-26T05:46:09.916Z,115
2017-03-26T05:47:10.249Z,125
2017-03-26T05:48:10.586Z,130
2017-03-26T05:49:10.622Z,130
2017-03-26T05:50:10.349Z,135
2017-03-26T05:51:10.391Z,135
2017-03-26T05:52:10.729Z,135
2017-03-26T05:53:10.457Z,135
2017-03-26T05:54:10.783Z,135
2017-03-26T05:55:10.526Z,135
2017-03-26T05:56:10.251Z,130
2017-03-26T05:57:10.612Z,130
2017-03-26T05:58:10.930Z,155
2017-03-26T05:59:11.285Z,175
2017-03-26T06:00:10.426Z,235
2017-03-26T06:01:10.422Z,270
2017-03-26T06:02:10.494Z,290
2017-03-26T06:03:10.498Z,315
2017-03-26T06:04:11.126Z,330
2017-03-26T06:05:11.163Z,340
2017-03-26T06:06:10.884Z,340
2017-03-26T06:07:10.625Z,340
2017-03-26T06:08:10.963Z,335
2017-03-26T06:09:11.009Z,345
2017-03-26T06:10:10.729Z,355
2017-03-26T06:11:11.060Z,350
2017-03-26T06:12:11.714Z,360
2017-03-26T06:13:11.138Z,365
2017-03-26T06:14:11.790Z,355
2017-03-26T06:15:10.900Z,375
2017-03-26T06:16:10.945Z,385
2017-03-26T06:17:10.978Z,365
2017-03-26T06:18:11.317Z,390
2017-03-26T06:19:11.671Z,395
2017-03-26T06:20:11.387Z,435
2017-03-26T06:21:11.126Z,445
2017-03-26T06:22:11.166Z,435
2017-03-26T06:23:11.500Z,400
2017-03-26T06:24:11.547Z,395
2017-03-26T06:25:11.274Z,395
2017-03-26T06:26:11.981Z,445
2017-03-26T06:27:11.663Z,525
2017-03-26T06:28:11.385Z,520
2017-03-26T06:29:11.741Z,530
2017-03-26T06:30:12.070Z,535
2017-03-26T06:31:11.803Z,550
2017-03-26T06:32:11.840Z,530
2017-03-26T06:33:11.623Z,560
2017-03-26T06:34:12.537Z,565
2017-03-26T06:35:11.657Z,565
2017-03-26T06:36:12.017Z,605
2017-03-26T06:37:12.051Z,615
2017-03-26T06:38:11.780Z,625
2017-03-26T06:39:12.426Z,620
2017-03-26T06:40:11.858Z,645
2017-03-26T06:41:11.913Z,665
2017-03-26T06:42:12.234Z,685
2017-03-26T06:43:12.286Z,675
2017-03-26T06:44:12.351Z,665
2017-03-26T06:45:12.061Z,690
2017-03-26T06:46:12.407Z,700
2017-03-26T06:47:12.443Z,730
2017-03-26T06:48:12.796Z,730
2017-03-26T06:49:12.542Z,715
2017-03-26T06:50:13.176Z,735
2017-03-26T06:51:12.323Z,740
2017-03-26T06:52:12.949Z,745
2017-03-26T06:53:12.715Z,745
2017-03-26T06:54:12.730Z,765
2017-03-26T06:55:13.079Z,760
2017-03-26T06:56:12.854Z,775
2017-03-26T06:57:12.862Z,755
2017-03-26T06:58:12.906Z,780
2017-03-26T06:59:13.247Z,765
2017-03-26T07:00:12.707Z,745
2017-03-26T07:01:12.725Z,750
2017-03-26T07:02:12.770Z,760
2017-03-26T07:03:12.825Z,765
2017-03-26T07:04:13.217Z,755
2017-03-26T07:05:13.522Z,785
2017-03-26T07:06:13.554Z,790
2017-03-26T07:07:13.292Z,785
2017-03-26T07:08:13.335Z,790
2017-03-26T07:09:13.684Z,815
2017-03-26T07:10:13.435Z,815
2017-03-26T07:11:13.158Z,825
2017-03-26T07:12:13.527Z,835
2017-03-26T07:13:13.560Z,865
2017-03-26T07:14:13.902Z,885
2017-03-26T07:15:14.087Z,925
2017-03-26T07:16:13.422Z,885
2017-03-26T07:17:13.740Z,950
2017-03-26T07:18:13.782Z,955
2017-03-26T07:19:13.837Z,975
2017-03-26T07:20:13.862Z,935
2017-03-26T07:21:13.614Z,935
2017-03-26T07:22:13.949Z,970
2017-03-26T07:23:14.352Z,990
2017-03-26T07:24:14.052Z,1000
2017-03-26T07:25:14.093Z,1015
2017-03-26T07:26:14.157Z,860
2017-03-26T07:27:13.876Z,1050
2017-03-26T07:28:14.525Z,1055
2017-03-26T07:29:14.572Z,1025
2017-03-26T07:30:14.015Z,1035
2017-03-26T07:31:14.386Z,1050
2017-03-26T07:32:14.707Z,1080
2017-03-26T07:33:14.746Z,1120
2017-03-26T07:34:15.116Z,1135
2017-03-26T07:35:14.229Z,1125
2017-03-26T07:36:14.891Z,1140
2017-03-26T07:37:14.634Z,1130
2017-03-26T07:38:14.979Z,1140
2017-03-26T07:39:14.735Z,1090
2017-03-26T07:40:15.074Z,1080
2017-03-26T07:41:14.819Z,1075
2017-03-26T07:42:14.861Z,970
2017-03-26T07:43:14.597Z,1045
2017-03-26T07:44:14.948Z,1040
2017-03-26T07:45:14.705Z,1055
2017-03-26T07:46:15.044Z,1075
2017-03-26T07:47:15.922Z,1070
2017-03-26T07:48:14.822Z,1110
2017-03-26T07:49:15.791Z,1155
2017-03-26T07:50:15.525Z,1170
2017-03-26T07:51:15.263Z,1180
2017-03-26T07:52:15.616Z,1190
2017-03-26T07:53:15.362Z,1210
2017-03-26T07:54:15.419Z,1210
2017-03-26T07:55:15.448Z,1195
2017-03-26T07:56:15.491Z,1150
2017-03-26T07:57:15.539Z,1185
2017-03-26T07:58:15.893Z,1245
2017-03-26T07:59:15.640Z,1255
2017-03-26T08:00:15.676Z,1300
2017-03-26T08:01:15.723Z,1345
2017-03-26T08:02:15.773Z,1380
2017-03-26T08:03:16.116Z,1380
2017-03-26T08:04:16.165Z,1335
2017-03-26T08:05:15.900Z,1450
2017-03-26T08:06:15.962Z,1490
2017-03-26T08:07:15.692Z,1505
2017-03-26T08:08:16.041Z,1485
2017-03-26T08:09:16.091Z,1475
2017-03-26T08:10:16.768Z,1470
2017-03-26T08:11:16.191Z,1485
2017-03-26T08:12:16.563Z,1510
2017-03-26T08:13:16.281Z,1475
2017-03-26T08:14:16.046Z,1485
2017-03-26T08:15:16.692Z,1445
2017-03-26T08:16:16.123Z,1380
2017-03-26T08:17:16.614Z,1535
2017-03-26T08:18:16.816Z,1565
2017-03-26T08:19:16.575Z,1540
2017-03-26T08:20:16.312Z,1560
2017-03-26T08:21:16.960Z,1515
2017-03-26T08:22:16.715Z,1660
2017-03-26T08:23:17.069Z,1600
2017-03-26T08:24:17.411Z,1515
2017-03-26T08:25:16.852Z,1615
2017-03-26T08:26:16.608Z,1620
2017-03-26T08:27:16.947Z,1725
2017-03-26T08:28:16.698Z,1655
2017-03-26T08:29:17.370Z,1620
2017-03-26T08:30:16.780Z,1555
2017-03-26T08:31:17.753Z,1515
2017-03-26T08:32:17.202Z,1490
2017-03-26T08:33:17.544Z,1445
2017-03-26T08:34:17.585Z,1425
2017-03-26T08:35:17.336Z,1440
2017-03-26T08:36:17.377Z,1430
2017-03-26T08:37:17.419Z,1450
2017-03-26T08:38:17.478Z,1455
2017-03-26T08:39:18.140Z,1485
2017-03-26T08:40:17.626Z,1525
2017-03-26T08:41:17.319Z,1535
2017-03-26T08:42:17.959Z,1545
2017-03-26T08:43:18.310Z,1565
2017-03-26T08:44:18.124Z,1570
2017-03-26T08:45:17.549Z,1575
2017-03-26T08:46:17.862Z,1505
2017-03-26T08:47:18.198Z,1490
2017-03-26T08:48:18.258Z,1515
2017-03-26T08:49:18.313Z,1515
2017-03-26T08:50:18.070Z,1570
2017-03-26T08:51:17.781Z,1615
2017-03-26T08:52:18.148Z,1560
2017-03-26T08:53:18.495Z,1675
2017-03-26T08:54:18.540Z,1665
2017-03-26T08:55:18.301Z,1640
2017-03-26T08:56:18.332Z,1635
2017-03-26T08:57:18.093Z,1630
2017-03-26T08:58:18.731Z,1620
2017-03-26T08:59:18.802Z,1610
2017-03-26T09:00:18.819Z,1630
2017-03-26T09:01:18.627Z,1605
2017-03-26T09:02:18.923Z,1620
2017-03-26T09:03:18.675Z,1620
2017-03-26T09:04:18.744Z,1625
2017-03-26T09:05:18.769Z,1645
2017-03-26T09:06:18.512Z,1620
2017-03-26T09:07:18.869Z,1600
2017-03-26T09:08:19.217Z,1600
2017-03-26T09:09:18.668Z,1630
2017-03-26T09:10:19.542Z,1680
2017-03-26T09:11:19.366Z,1680
2017-03-26T09:12:19.116Z,1650
2017-03-26T09:13:20.067Z,1725
2017-03-26T09:14:19.579Z,1660
2017-03-26T09:15:19.573Z,1625
2017-03-26T09:16:19.622Z,1645
2017-03-26T09:17:19.361Z,1680
2017-03-26T09:18:19.414Z,1695
2017-03-26T09:19:20.131Z,1685
2017-03-26T09:20:19.835Z,1700
2017-03-26T09:21:19.562Z,1745
2017-03-26T09:22:20.211Z,1760
2017-03-26T09:23:19.684Z,1755
2017-03-26T09:24:19.723Z,1745
2017-03-26T09:25:19.824Z,1735
2017-03-26T09:26:19.517Z,1715
2017-03-26T09:27:19.877Z,1680
2017-03-26T09:28:19.623Z,1625
2017-03-26T09:29:19.981Z,1620
2017-03-26T09:30:20.021Z,1630
2017-03-26T09:31:19.781Z,1640
2017-03-26T09:32:20.129Z,1625
2017-03-26T09:33:20.178Z,1605
2017-03-26T09:34:20.540Z,1580
2017-03-26T09:35:19.977Z,1595
2017-03-26T09:36:20.033Z,1620
2017-03-26T09:37:20.081Z,1605
2017-03-26T09:38:20.440Z,1590
2017-03-26T09:39:20.803Z,1605
2017-03-26T09:40:20.843Z,1635
2017-03-26T09:41:20.654Z,1625
2017-03-26T09:42:20.354Z,1655
2017-03-26T09:43:20.695Z,1670
2017-03-26T09:44:21.119Z,1715
2017-03-26T09:45:20.797Z,1735
2017-03-26T09:46:20.555Z,1720
2017-03-26T09:47:20.905Z,1675
2017-03-26T09:48:21.272Z,1685
2017-03-26T09:49:21.328Z,1705
2017-03-26T09:50:20.770Z,1725
2017-03-26T09:51:20.817Z,1745
2017-03-26T09:52:20.891Z,1735
2017-03-26T09:53:21.534Z,1740
2017-03-26T09:54:21.277Z,1730
2017-03-26T09:55:21.055Z,1735
2017-03-26T09:56:21.385Z,1760
2017-03-26T09:57:21.749Z,1770
2017-03-26T09:58:21.817Z,1790
2017-03-26T09:59:21.669Z,1725
2017-03-26T10:00:21.905Z,1755
2017-03-26T10:01:21.658Z,1760
2017-03-26T10:02:21.718Z,1770
2017-03-26T10:03:22.114Z,1725
2017-03-26T10:04:22.117Z,1800
2017-03-26T10:05:21.554Z,1740
2017-03-26T10:06:21.920Z,1745
2017-03-26T10:07:21.681Z,1660
2017-03-26T10:08:21.725Z,1635
2017-03-26T10:09:22.402Z,1690
2017-03-26T10:10:22.153Z,1620
2017-03-26T10:11:21.895Z,1600
2017-03-26T10:12:22.551Z,1630
2017-03-26T10:13:22.601Z,1565
2017-03-26T10:14:22.671Z,1485
2017-03-26T10:15:22.406Z,1660
2017-03-26T10:16:22.782Z,1685
2017-03-26T10:17:22.525Z,1790
2017-03-26T10:18:22.267Z,1750
2017-03-26T10:19:22.929Z,1800
2017-03-26T10:20:22.378Z,1860
2017-03-26T10:21:22.739Z,1810
2017-03-26T10:22:22.478Z,1830
2017-03-26T10:23:23.512Z,1815
2017-03-26T10:24:23.511Z,1455
2017-03-26T10:25:22.656Z,1765
2017-03-26T10:26:23.028Z,1775
2017-03-26T10:27:23.068Z,1775
2017-03-26T10:28:23.112Z,1745
2017-03-26T10:29:23.484Z,1700
2017-03-26T10:30:22.922Z,1690
2017-03-26T10:31:22.977Z,1640
2017-03-26T10:32:23.638Z,1640
2017-03-26T10:33:23.393Z,1670
2017-03-26T10:34:23.443Z,1705
2017-03-26T10:35:23.244Z,1760
2017-03-26T10:36:23.552Z,1780
2017-03-26T10:37:23.603Z,1815
2017-03-26T10:38:23.957Z,1830
2017-03-26T10:39:23.719Z,1790
2017-03-26T10:40:23.756Z,1825
2017-03-26T10:41:24.119Z,1805
2017-03-26T10:42:23.571Z,1770
2017-03-26T10:43:23.929Z,1820
2017-03-26T10:44:23.976Z,1820
2017-03-26T10:45:23.727Z,1810
2017-03-26T10:46:24.078Z,1750
2017-03-26T10:47:23.836Z,1765
2017-03-26T10:48:23.899Z,1795
2017-03-26T10:49:24.241Z,1820
2017-03-26T10:50:24.297Z,1815
2017-03-26T10:51:24.040Z,1850
2017-03-26T10:52:24.158Z,1830
2017-03-26T10:53:24.455Z,1850
2017-03-26T10:54:24.805Z,1830
2017-03-26T10:55:24.262Z,1790
2017-03-26T10:56:24.602Z,1760
2017-03-26T10:57:24.670Z,925
2017-03-26T10:58:25.012Z,920
2017-03-26T10:59:25.367Z,725
2017-03-26T11:00:24.520Z,1670
2017-03-26T11:01:24.564Z,1655
2017-03-26T11:02:24.922Z,1670
2017-03-26T11:03:24.674Z,1560
2017-03-26T11:04:24.716Z,1640
2017-03-26T11:05:25.379Z,1565
2017-03-26T11:06:25.119Z,1575
2017-03-26T11:07:24.882Z,1585
2017-03-26T11:08:25.546Z,1625
2017-03-26T11:09:25.578Z,1640
2017-03-26T11:10:25.023Z,1750
2017-03-26T11:11:25.099Z,1625
2017-03-26T11:12:25.150Z,1750
2017-03-26T11:13:25.480Z,1835
2017-03-26T11:14:25.532Z,1655
2017-03-26T11:15:25.575Z,1370
2017-03-26T11:16:25.327Z,1400
2017-03-26T11:17:25.383Z,775
2017-03-26T11:18:25.735Z,435
2017-03-26T11:19:26.090Z,410
2017-03-26T11:20:25.540Z,365
2017-03-26T11:21:25.885Z,330
2017-03-26T11:22:25.931Z,330
2017-03-26T11:23:25.987Z,315
2017-03-26T11:24:26.631Z,305
2017-03-26T11:25:25.768Z,295
2017-03-26T11:26:26.110Z,290
2017-03-26T11:27:25.869Z,285
2017-03-26T11:28:26.225Z,285
2017-03-26T11:29:26.861Z,275
2017-03-26T11:30:26.311Z,280
2017-03-26T11:31:26.053Z,285
2017-03-26T11:32:26.098Z,285
2017-03-26T11:33:26.747Z,300
2017-03-26T11:34:26.792Z,290
2017-03-26T11:35:26.269Z,280
2017-03-26T11:36:26.273Z,290
2017-03-26T11:37:26.939Z,325
2017-03-26T11:38:27.280Z,315
2017-03-26T11:39:26.420Z,290
2017-03-26T11:40:26.463Z,260
2017-03-26T11:41:26.818Z,235
2017-03-26T11:42:26.846Z,240
2017-03-26T11:43:26.905Z,240
2017-03-26T11:44:26.643Z,230
2017-03-26T11:45:27.597Z,230
2017-03-26T11:46:26.740Z,235
2017-03-26T11:47:26.783Z,235
2017-03-26T11:48:27.137Z,225
2017-03-26T11:49:27.170Z,225
2017-03-26T11:50:27.515Z,225
2017-03-26T11:51:26.946Z,220
2017-03-26T11:52:27.001Z,220
2017-03-26T11:53:27.353Z,220
2017-03-26T11:54:27.686Z,230
2017-03-26T11:55:27.115Z,235
2017-03-26T11:56:27.159Z,225
2017-03-26T11:57:27.823Z,225
2017-03-26T11:58:27.562Z,210
2017-03-26T11:59:27.904Z,205
2017-03-26T12:00:27.333Z,200
2017-03-26T12:01:27.685Z,195
2017-03-26T12:02:27.723Z,200
2017-03-26T12:03:28.375Z,200
2017-03-26T12:04:27.809Z,200
2017-03-26T12:05:27.854Z,200
2017-03-26T12:06:27.895Z,200
2017-03-26T12:07:27.933Z,200
2017-03-26T12:08:28.273Z,195
2017-03-26T12:09:28.033Z,190
2017-03-26T12:10:28.059Z,190
2017-03-26T12:11:28.093Z,190
2017-03-26T12:12:27.835Z,185
2017-03-26T12:13:28.202Z,175
2017-03-26T12:14:28.221Z,175
2017-03-26T12:15:27.964Z,175
2017-03-26T12:16:28.614Z,175
2017-03-26T12:17:28.659Z,170
2017-03-26T12:18:28.698Z,170
2017-03-26T12:19:28.743Z,170
2017-03-26T12:20:28.762Z,165
2017-03-26T12:21:28.515Z,165
2017-03-26T12:22:29.158Z,165
2017-03-26T12:23:28.604Z,160
2017-03-26T12:24:29.234Z,160
2017-03-26T12:25:28.677Z,160
2017-03-26T12:26:28.710Z,155
2017-03-26T12:27:29.064Z,155
2017-03-26T12:28:29.088Z,155
2017-03-26T12:29:29.150Z,160
2017-03-26T12:30:28.568Z,155
2017-03-26T12:31:28.609Z,155
2017-03-26T12:32:28.640Z,155
2017-03-26T12:33:28.689Z,155
2017-03-26T12:34:29.037Z,155
2017-03-26T12:35:29.066Z,155
2017-03-26T12:36:28.801Z,150
2017-03-26T12:37:28.846Z,145
2017-03-26T12:38:29.497Z,145
2017-03-26T12:39:29.549Z,145
2017-03-26T12:40:28.960Z,145
2017-03-26T12:41:29.315Z,145
2017-03-26T12:42:29.047Z,140
2017-03-26T12:43:29.403Z,140
2017-03-26T12:44:29.448Z,140
2017-03-26T12:45:29.779Z,140
2017-03-26T12:46:29.212Z,140
2017-03-26T12:47:29.248Z,135
2017-03-26T12:48:29.899Z,135
2017-03-26T12:49:29.624Z,135
2017-03-26T12:50:29.674Z,135
2017-03-26T12:51:29.413Z,135
2017-03-26T12:52:29.746Z,135
2017-03-26T12:53:30.089Z,135
2017-03-26T12:54:30.143Z,135
2017-03-26T12:55:29.564Z,140
2017-03-26T12:56:29.610Z,140
2017-03-26T12:57:29.948Z,140
2017-03-26T12:58:29.688Z,140
2017-03-26T12:59:30.642Z,135
2017-03-26T13:00:29.776Z,135
2017-03-26T13:01:29.807Z,130
2017-03-26T13:02:29.840Z,130
2017-03-26T13:03:30.268Z,125
2017-03-26T13:04:30.224Z,125
2017-03-26T13:05:30.260Z,120
2017-03-26T13:06:30.310Z,120
2017-03-26T13:07:30.339Z,120
2017-03-26T13:08:30.691Z,120
2017-03-26T13:09:30.460Z,120
2017-03-26T13:10:30.467Z,120
2017-03-26T13:11:31.121Z,120
2017-03-26T13:12:30.543Z,125
2017-03-26T13:13:31.195Z,130
2017-03-26T13:14:30.625Z,130
2017-03-26T13:15:30.356Z,130
2017-03-26T13:16:30.394Z,125
2017-03-26T13:17:30.759Z,125
2017-03-26T13:18:31.109Z,125
2017-03-26T13:19:30.814Z,125
2017-03-26T13:20:30.859Z,125
2017-03-26T13:21:30.911Z,125
2017-03-26T13:22:30.932Z,125
2017-03-26T13:23:30.978Z,125
2017-03-26T13:24:31.321Z,125
2017-03-26T13:25:31.083Z,125
2017-03-26T13:26:30.790Z,125
2017-03-26T13:27:31.451Z,125
2017-03-26T13:28:30.876Z,130
2017-03-26T13:29:31.539Z,130
2017-03-26T13:30:31.272Z,125
2017-03-26T13:31:30.982Z,125
2017-03-26T13:32:31.327Z,125
2017-03-26T13:33:31.686Z,130
2017-03-26T13:34:31.402Z,135
2017-03-26T13:35:31.758Z,135
2017-03-26T13:36:31.202Z,140
2017-03-26T13:37:31.236Z,145
2017-03-26T13:38:31.598Z,150
2017-03-26T13:39:31.603Z,150
2017-03-26T13:40:31.346Z,145
2017-03-26T13:41:31.692Z,140
2017-03-26T13:42:31.722Z,130
2017-03-26T13:43:31.756Z,130
2017-03-26T13:44:32.111Z,125
2017-03-26T13:45:32.138Z,130
2017-03-26T13:46:31.579Z,135
2017-03-26T13:47:31.912Z,135
2017-03-26T13:48:31.655Z,135
2017-03-26T13:49:32.319Z,125
2017-03-26T13:50:32.044Z,125
2017-03-26T13:51:31.780Z,120
2017-03-26T13:52:31.810Z,120
2017-03-26T13:53:32.766Z,120
2017-03-26T13:54:32.189Z,120
2017-03-26T13:55:32.231Z,120
2017-03-26T13:56:32.279Z,120
2017-03-26T13:57:32.009Z,115
2017-03-26T13:58:32.343Z,115
2017-03-26T13:59:32.699Z,115
2017-03-26T14:00:32.742Z,120
2017-03-26T14:01:32.159Z,120